Time;durP1;ratioP1;P1;durP2;ratioP2;P2;SDS_P1;SDS_P2;PMS_P1;PMS_P2;Temp;Humidity;BMP_temperature;BMP_pressure;BME280_temperature;BME280_humidity;BME280_pressure;Samples;Min_cycle;Max_cycle;Signal;HPM_P1;HPM_P2
2022/07/08 00:02:30;;;;;;;6.18;1.27;;;15.10;99.90;;;;;;7359946;32;20095;-61
2022/07/08 00:06:32;;;;;;;4.70;0.95;;;15.10;99.90;;;;;;7359463;32;20137;-61
2022/07/08 00:10:34;;;;;;;7.68;1.55;;;15.10;99.90;;;;;;7358502;32;20154;-61
2022/07/08 00:14:36;;;;;;;7.25;1.00;;;15.20;99.90;;;;;;7359156;32;20144;-61
2022/07/08 00:18:37;;;;;;;9.52;1.15;;;15.00;99.90;;;;;;7358674;32;20217;-61
2022/07/08 00:22:39;;;;;;;9.98;1.67;;;15.00;99.90;;;;;;7359252;32;20191;-62
2022/07/08 00:26:43;;;;;;;7.37;1.10;;;15.00;99.90;;;;;;7358361;32;20107;-62
2022/07/08 00:30:45;;;;;;;11.73;1.50;;;14.90;99.90;;;;;;7358411;32;20171;-61
2022/07/08 00:34:47;;;;;;;5.32;1.05;;;14.90;99.90;;;;;;7358522;32;20175;-61
2022/07/08 00:38:49;;;;;;;7.28;1.10;;;14.80;99.90;;;;;;7356886;32;20164;-61
2022/07/08 00:42:52;;;;;;;6.80;1.10;;;14.90;99.90;;;;;;7358259;32;20202;-61
2022/07/08 00:46:53;;;;;;;7.53;1.25;;;14.80;99.90;;;;;;7358293;32;20118;-63
2022/07/08 00:50:59;;;;;;;8.40;1.58;;;14.80;99.90;;;;;;7357440;32;20582;-63
2022/07/08 00:55:01;;;;;;;6.97;1.12;;;14.80;99.90;;;;;;7342557;32;20499;-61
2022/07/08 00:59:03;;;;;;;8.57;1.30;;;14.80;99.90;;;;;;7352754;32;20122;-61
2022/07/08 01:03:05;;;;;;;12.25;1.27;;;14.80;99.90;;;;;;7358088;32;20186;-61
2022/07/08 01:07:07;;;;;;;9.35;1.40;;;14.80;99.90;;;;;;7357617;32;20186;-61
2022/07/08 01:11:09;;;;;;;3.67;0.82;;;14.70;99.90;;;;;;7356790;32;20099;-62
2022/07/08 01:15:11;;;;;;;12.52;1.48;;;14.70;99.90;;;;;;7357975;32;20123;-62
2022/07/08 01:19:12;;;;;;;9.25;1.40;;;14.70;99.90;;;;;;7357118;32;20098;-61
2022/07/08 01:23:14;;;;;;;11.88;1.75;;;14.70;99.90;;;;;;7357863;32;20547;-61
2022/07/08 01:27:16;;;;;;;11.90;1.55;;;14.60;99.90;;;;;;7357430;32;20205;-61
2022/07/08 01:31:28;;;;;;;7.10;1.10;;;14.60;99.90;;;;;;7357320;32;20126;-62
2022/07/08 01:35:30;;;;;;;7.68;1.40;;;14.60;99.90;;;;;;7357158;32;20542;-62
2022/07/08 01:39:32;;;;;;;7.47;1.00;;;14.70;99.90;;;;;;7356219;32;20164;-61
2022/07/08 01:43:34;;;;;;;8.95;1.00;;;14.60;99.90;;;;;;7356630;32;20127;-61
2022/07/08 01:47:36;;;;;;;6.62;1.10;;;14.70;99.90;;;;;;7355204;32;20167;-61
2022/07/08 01:51:37;;;;;;;7.68;1.00;;;14.70;99.90;;;;;;7356856;32;20171;-62
2022/07/08 01:55:40;;;;;;;7.35;1.12;;;14.60;99.90;;;;;;7338864;32;20095;-64
2022/07/08 01:59:43;;;;;;;7.97;1.08;;;14.60;99.90;;;;;;7331066;32;20170;-63
2022/07/08 02:03:45;;;;;;;6.18;1.10;;;14.60;99.90;;;;;;7331972;32;20139;-61
2022/07/08 02:07:47;;;;;;;3.50;1.10;;;14.50;99.90;;;;;;7349013;32;20099;-62
2022/07/08 02:16:09;;;;;;;9.13;1.70;;;14.50;99.90;;;;;;7361866;32;20617;-61
2022/07/08 02:20:13;;;;;;;9.43;1.60;;;14.50;99.90;;;;;;7360974;32;20108;-61
2022/07/08 02:24:14;;;;;;;9.20;1.40;;;14.50;99.90;;;;;;7361937;32;20187;-61
2022/07/08 02:28:16;;;;;;;7.72;1.62;;;14.50;99.90;;;;;;7360757;32;20123;-61
2022/07/08 02:32:18;;;;;;;7.68;1.08;;;14.50;99.90;;;;;;7362084;32;20123;-62
2022/07/08 02:36:20;;;;;;;8.98;1.42;;;14.50;99.90;;;;;;7361139;32;20151;-61
2022/07/08 02:40:21;;;;;;;9.93;1.50;;;14.50;99.90;;;;;;7360911;32;20171;-61
2022/07/08 02:44:23;;;;;;;5.87;0.98;;;14.50;99.90;;;;;;7360840;32;20221;-61
2022/07/08 02:48:25;;;;;;;14.80;1.35;;;14.40;99.90;;;;;;7354888;32;20553;-60
2022/07/08 02:52:27;;;;;;;7.82;1.10;;;14.40;99.90;;;;;;7361485;32;20270;-61
2022/07/08 02:56:29;;;;;;;6.25;0.90;;;14.40;99.90;;;;;;7349596;32;20515;-60
2022/07/08 03:00:36;;;;;;;10.95;1.10;;;14.40;99.90;;;;;;7360258;32;20474;-61
2022/07/08 03:04:38;;;;;;;4.00;0.90;;;14.40;99.90;;;;;;7360933;32;20250;-62
2022/07/08 03:08:40;;;;;;;9.25;1.00;;;14.40;99.90;;;;;;7360588;32;20092;-62
2022/07/08 03:12:41;;;;;;;5.62;1.33;;;14.40;99.90;;;;;;7361054;32;20117;-62
2022/07/08 03:16:43;;;;;;;8.23;1.05;;;14.30;99.90;;;;;;7359778;32;20744;-61
2022/07/08 03:20:45;;;;;;;6.32;1.12;;;14.30;99.90;;;;;;7359501;32;20108;-62
2022/07/08 03:24:46;;;;;;;6.60;1.58;;;14.30;99.90;;;;;;7360523;32;20131;-61
2022/07/08 03:28:48;;;;;;;5.57;1.00;;;14.20;99.90;;;;;;7360049;32;20250;-62
2022/07/08 03:32:50;;;;;;;6.75;1.10;;;14.20;99.90;;;;;;7360553;32;20196;-61
2022/07/08 03:36:52;;;;;;;5.80;1.40;;;14.20;99.90;;;;;;7360381;32;20171;-60
2022/07/08 03:45:14;;;;;;;6.07;1.20;;;14.30;99.90;;;;;;7359359;32;20634;-60
2022/07/08 03:49:15;;;;;;;5.97;1.12;;;14.40;99.90;;;;;;7358803;32;20107;-60
2022/07/08 03:53:17;;;;;;;8.05;1.25;;;14.30;99.90;;;;;;7356281;32;20179;-60
2022/07/08 03:57:19;;;;;;;5.12;1.17;;;14.30;99.90;;;;;;7339125;32;20220;-60
2022/07/08 04:01:20;;;;;;;7.78;1.48;;;14.30;99.90;;;;;;7353927;32;20148;-61
2022/07/08 04:05:22;;;;;;;5.28;1.23;;;14.30;99.90;;;;;;7359183;32;20561;-61
2022/07/08 04:09:24;;;;;;;8.15;1.75;;;14.30;99.90;;;;;;7358795;32;20190;-62
2022/07/08 04:13:29;;;;;;;7.97;1.40;;;14.30;99.90;;;;;;7359235;32;20152;-60
2022/07/08 04:17:31;;;;;;;7.68;1.17;;;14.30;99.90;;;;;;7358179;32;20211;-60
2022/07/08 04:21:33;;;;;;;11.80;1.65;;;14.30;99.90;;;;;;7358952;32;20595;-61
2022/07/08 04:25:34;;;;;;;8.73;1.40;;;14.30;99.90;;;;;;7359305;32;20511;-63
2022/07/08 04:29:36;;;;;;;8.00;1.50;;;14.40;99.90;;;;;;7357103;32;20153;-61
2022/07/08 04:33:38;;;;;;;5.32;1.08;;;14.50;99.90;;;;;;7358702;32;20181;-63
2022/07/08 04:37:40;;;;;;;6.40;1.12;;;14.50;99.90;;;;;;7358246;32;20118;-61
2022/07/08 04:41:41;;;;;;;9.98;1.33;;;14.50;99.90;;;;;;7358639;32;20458;-61
2022/07/08 04:45:43;;;;;;;9.98;1.37;;;14.60;99.90;;;;;;7357762;32;20179;-61
2022/07/08 04:49:45;;;;;;;9.35;1.67;;;14.60;99.90;;;;;;7356808;32;20122;-65
2022/07/08 04:53:47;;;;;;;6.45;1.50;;;14.50;99.90;;;;;;7350719;32;20476;-65
2022/07/08 04:57:48;;;;;;;5.62;1.08;;;14.50;99.90;;;;;;7334926;32;20205;-65
2022/07/08 05:01:50;;;;;;;9.63;1.62;;;14.50;99.90;;;;;;7340092;32;20095;-64
2022/07/08 05:05:52;;;;;;;7.00;1.60;;;14.60;99.90;;;;;;7347663;32;20149;-65
2022/07/08 05:09:54;;;;;;;5.20;1.20;;;14.70;99.90;;;;;;7356995;32;20145;-64
2022/07/08 05:13:56;;;;;;;7.20;1.62;;;14.70;99.90;;;;;;7357792;32;20164;-64
2022/07/08 05:17:57;;;;;;;11.10;1.77;;;14.80;99.90;;;;;;7356185;32;20513;-65
2022/07/08 05:21:59;;;;;;;6.45;1.62;;;14.80;99.90;;;;;;7357610;32;20595;-65
2022/07/08 05:26:01;;;;;;;6.82;1.65;;;14.90;99.90;;;;;;7357388;32;20874;-65
2022/07/08 05:30:05;;;;;;;8.20;1.73;;;15.00;99.90;;;;;;7357123;32;20111;-64
2022/07/08 05:34:07;;;;;;;8.35;1.85;;;14.90;99.90;;;;;;7356981;32;20163;-66
2022/07/08 05:38:08;;;;;;;8.82;1.80;;;14.90;99.90;;;;;;7356335;32;20250;-66
2022/07/08 05:42:11;;;;;;;5.43;1.23;;;15.00;99.90;;;;;;7357308;32;20119;-64
2022/07/08 05:46:12;;;;;;;11.32;1.98;;;15.10;99.90;;;;;;7356329;32;20127;-64
2022/07/08 05:50:14;;;;;;;8.73;1.80;;;15.20;99.90;;;;;;7356087;32;20103;-64
2022/07/08 05:54:16;;;;;;;10.35;1.70;;;15.10;99.90;;;;;;7346814;32;20172;-66
2022/07/08 05:58:18;;;;;;;7.53;1.67;;;15.30;99.90;;;;;;7333492;32;20560;-65
2022/07/08 06:02:20;;;;;;;11.52;1.67;;;15.70;99.90;;;;;;7331287;32;20165;-65
2022/07/08 06:06:22;;;;;;;8.95;1.58;;;15.90;99.90;;;;;;7339070;32;20232;-65
2022/07/08 06:10:26;;;;;;;12.05;1.50;;;15.80;99.90;;;;;;7355661;32;20131;-66
2022/07/08 06:14:27;;;;;;;6.90;1.42;;;15.50;99.90;;;;;;7357206;32;20193;-65
2022/07/08 06:18:29;;;;;;;7.03;1.20;;;15.50;99.90;;;;;;7355534;32;20342;-66
2022/07/08 06:22:32;;;;;;;9.75;2.08;;;15.60;99.90;;;;;;7355939;32;20108;-65
2022/07/08 06:26:33;;;;;;;7.50;1.55;;;15.60;99.90;;;;;;7356197;32;20410;-65
2022/07/08 06:30:35;;;;;;;8.90;1.27;;;15.60;99.90;;;;;;7355883;32;20114;-65
2022/07/08 06:34:37;;;;;;;10.38;1.58;;;15.70;99.90;;;;;;7356432;32;20164;-65
2022/07/08 06:38:39;;;;;;;8.55;1.33;;;15.60;99.90;;;;;;7355461;32;20317;-65
2022/07/08 06:42:41;;;;;;;7.22;1.30;;;15.60;99.90;;;;;;7356079;32;20174;-64
2022/07/08 06:46:42;;;;;;;5.53;1.05;;;15.80;99.90;;;;;;7356061;32;20484;-65
2022/07/08 06:50:44;;;;;;;6.70;1.20;;;16.40;99.90;;;;;;7355729;32;20134;-65
2022/07/08 06:54:47;;;;;;;6.00;1.50;;;17.00;99.90;;;;;;7346436;32;20712;-66
2022/07/08 06:58:49;;;;;;;8.70;1.90;;;17.40;99.90;;;;;;7336138;32;20213;-65
2022/07/08 07:02:51;;;;;;;7.78;1.58;;;17.50;99.90;;;;;;7334956;32;20445;-66
2022/07/08 07:06:53;;;;;;;8.43;1.83;;;18.40;99.90;;;;;;7345371;32;20556;-66
2022/07/08 07:10:54;;;;;;;8.70;2.08;;;18.40;99.90;;;;;;7359508;32;20125;-65
2022/07/08 07:14:56;;;;;;;10.77;2.85;;;18.50;99.90;;;;;;7359294;32;20099;-65
2022/07/08 07:18:58;;;;;;;11.65;2.90;;;18.30;99.90;;;;;;7359152;32;20091;-66
2022/07/08 07:23:00;;;;;;;7.15;2.20;;;17.90;99.90;;;;;;7359718;32;20100;-65
2022/07/08 07:27:02;;;;;;;9.38;2.58;;;17.50;99.90;;;;;;7359569;32;20123;-64
2022/07/08 07:31:04;;;;;;;9.02;1.77;;;17.20;99.90;;;;;;7359471;32;20178;-65
2022/07/08 07:35:06;;;;;;;5.93;1.90;;;17.40;99.90;;;;;;7359475;32;20123;-65
2022/07/08 07:39:09;;;;;;;8.48;1.92;;;17.20;99.90;;;;;;7358892;32;20211;-65
2022/07/08 07:43:11;;;;;;;11.70;2.45;;;17.70;99.90;;;;;;7359442;32;20103;-65
2022/07/08 07:47:12;;;;;;;6.75;2.47;;;18.40;99.90;;;;;;7359052;32;20537;-65
2022/07/08 07:51:14;;;;;;;7.78;2.53;;;18.80;99.90;;;;;;7358865;32;20103;-65
2022/07/08 07:55:16;;;;;;;9.05;2.80;;;18.80;99.90;;;;;;7359012;32;20164;-65
2022/07/08 07:59:18;;;;;;;11.95;3.15;;;18.30;99.90;;;;;;7356794;32;20567;-66
2022/07/08 08:03:20;;;;;;;6.95;3.20;;;18.20;99.90;;;;;;7359545;32;20194;-65
2022/07/08 08:07:22;;;;;;;6.85;2.75;;;18.60;99.90;;;;;;7358458;32;20153;-65
2022/07/08 08:11:24;;;;;;;8.75;2.28;;;19.10;99.90;;;;;;7358195;32;20115;-65
2022/07/08 08:15:29;;;;;;;9.18;2.08;;;19.40;99.90;;;;;;7358804;32;20190;-65
2022/07/08 08:19:31;;;;;;;6.97;1.60;;;19.30;99.90;;;;;;7358177;32;20512;-64
2022/07/08 08:23:33;;;;;;;6.22;1.42;;;19.20;99.90;;;;;;7358466;32;20115;-66
2022/07/08 08:27:40;;;;;;;9.25;1.75;;;19.30;99.90;;;;;;7356755;32;20535;-65
2022/07/08 08:31:42;;;;;;;4.60;1.20;;;19.90;99.90;;;;;;7358178;32;20198;-66
2022/07/08 08:35:44;;;;;;;8.63;1.60;;;20.70;99.90;;;;;;7358509;32;20096;-65
2022/07/08 08:39:46;;;;;;;11.63;1.45;;;20.50;99.90;;;;;;7356792;32;20107;-66
2022/07/08 08:43:47;;;;;;;4.37;1.15;;;20.00;99.90;;;;;;7357633;32;20156;-65
2022/07/08 08:47:50;;;;;;;6.30;1.45;;;19.50;99.90;;;;;;7356851;32;20234;-65
2022/07/08 08:51:54;;;;;;;7.37;1.58;;;19.70;99.90;;;;;;7357182;32;20481;-65
2022/07/08 08:55:57;;;;;;;6.95;1.15;;;20.40;99.90;;;;;;7354966;32;20604;-66
2022/07/08 08:59:59;;;;;;;4.45;1.20;;;21.50;99.90;;;;;;7350480;32;20110;-66
2022/07/08 09:04:02;;;;;;;9.35;1.70;;;22.40;99.90;;;;;;7357844;32;20176;-66
2022/07/08 09:08:04;;;;;;;7.78;2.03;;;22.70;99.90;;;;;;7356238;32;20294;-66
2022/07/08 09:12:19;;;;;;;7.22;1.70;;;22.90;99.90;;;;;;7357666;32;20188;-66
2022/07/08 09:16:21;;;;;;;6.25;1.42;;;23.50;99.90;;;;;;7357144;32;20529;-66
2022/07/08 09:20:23;;;;;;;5.00;1.50;;;23.80;99.90;;;;;;7356283;32;20189;-66
2022/07/08 09:24:26;;;;;;;6.15;1.25;;;24.50;99.90;;;;;;7357291;32;20103;-67
2022/07/08 09:28:32;;;;;;;9.25;1.70;;;24.50;99.90;;;;;;7356401;32;20125;-66
2022/07/08 09:32:35;;;;;;;8.37;1.40;;;24.50;97.90;;;;;;7357045;32;20099;-66
2022/07/08 09:36:49;;;;;;;10.32;1.75;;;24.50;96.00;;;;;;7356937;32;20206;-66
2022/07/08 09:40:59;;;;;;;6.05;1.10;;;23.70;96.80;;;;;;7356283;32;20964;-68
2022/07/08 09:45:01;;;;;;;6.93;1.37;;;23.70;99.90;;;;;;7357019;32;20186;-66
2022/07/08 09:49:05;;;;;;;8.13;1.33;;;23.90;99.10;;;;;;7355841;32;20233;-66
2022/07/08 09:53:13;;;;;;;8.27;1.25;;;23.40;99.40;;;;;;7353804;32;20111;-66
2022/07/08 09:57:15;;;;;;;4.97;1.20;;;22.70;99.90;;;;;;7341880;32;20115;-66
2022/07/08 10:01:17;;;;;;;4.68;1.40;;;22.30;99.90;;;;;;7355617;32;20190;-66
2022/07/08 10:05:19;;;;;;;6.03;1.20;;;22.10;99.90;;;;;;7356625;32;20095;-66
2022/07/08 10:09:23;;;;;;;7.03;1.10;;;21.90;99.90;;;;;;7354330;32;20519;-66
2022/07/08 10:13:25;;;;;;;9.73;1.20;;;22.10;99.90;;;;;;7356514;32;20556;-66
2022/07/08 10:17:32;;;;;;;7.60;1.42;;;21.90;99.90;;;;;;7356380;32;20441;-66
2022/07/08 10:21:36;;;;;;;7.30;1.20;;;22.30;99.90;;;;;;7356557;32;20099;-66
2022/07/08 10:25:38;;;;;;;7.07;1.27;;;22.50;99.90;;;;;;7357213;32;20142;-66
2022/07/08 10:29:40;;;;;;;7.25;1.40;;;22.00;99.90;;;;;;7360628;32;20274;-66
2022/07/08 10:33:45;;;;;;;6.82;1.48;;;21.80;99.90;;;;;;7361169;32;20096;-68
2022/07/08 10:37:51;;;;;;;7.95;1.48;;;22.20;99.90;;;;;;7360300;32;20099;-67
2022/07/08 10:42:04;;;;;;;11.77;1.67;;;22.70;99.90;;;;;;7360934;32;20103;-67
2022/07/08 10:46:15;;;;;;;6.95;1.15;;;23.50;99.90;;;;;;7360490;32;20171;-67
2022/07/08 10:50:22;;;;;;;9.25;1.10;;;23.40;99.90;;;;;;7358583;32;20654;-66
2022/07/08 10:54:25;;;;;;;;;;;23.40;99.90;;;;;;7361097;32;20159;-66
2022/07/08 10:59:06;;;;;;;6.00;1.05;;;23.50;99.90;;;;;;7348364;32;20403;-67
2022/07/08 11:03:11;;;;;;;5.87;1.00;;;23.50;99.90;;;;;;7360966;32;20191;-66
2022/07/08 11:07:26;;;;;;;8.32;1.50;;;23.30;99.60;;;;;;7360484;32;20107;-66
2022/07/08 11:11:28;;;;;;;10.68;5.57;;;23.50;98.50;;;;;;7334266;32;20133;-66
2022/07/08 11:15:30;;;;;;;7.62;1.35;;;23.20;99.30;;;;;;7335004;32;20863;-66
2022/07/08 11:19:32;;;;;;;5.65;1.08;;;23.30;99.90;;;;;;7348305;32;20179;-67
2022/07/08 11:23:34;;;;;;;7.68;1.33;;;23.30;99.90;;;;;;7360113;32;20104;-66
2022/07/08 11:27:37;;;;;;;7.93;1.62;;;23.00;99.90;;;;;;7359179;32;20237;-66
2022/07/08 11:31:39;;;;;;;7.55;1.50;;;22.50;99.90;;;;;;7360034;32;20537;-67
2022/07/08 11:35:42;;;;;;;9.73;1.35;;;22.50;99.90;;;;;;7359634;32;20640;-66
2022/07/08 11:39:44;;;;;;;6.12;1.40;;;22.40;99.90;;;;;;7357978;32;20206;-66
2022/07/08 11:43:47;;;;;;;8.57;1.20;;;22.40;99.90;;;;;;7359449;32;20099;-66
2022/07/08 11:47:49;;;;;;;7.05;1.52;;;22.00;99.90;;;;;;7358825;32;20145;-64
2022/07/08 11:51:56;;;;;;;9.23;1.60;;;22.50;99.90;;;;;;7359393;32;20187;-65
2022/07/08 11:55:58;;;;;;;10.98;2.92;;;22.40;99.90;;;;;;7341501;32;20777;-66
2022/07/08 12:00:11;;;;;;;9.88;1.75;;;22.30;99.90;;;;;;7358241;32;20160;-66
2022/07/08 12:04:13;;;;;;;7.82;2.25;;;22.50;99.90;;;;;;7359597;32;20160;-66
2022/07/08 12:08:18;;;;;;;7.45;1.48;;;22.50;99.90;;;;;;7357818;32;20232;-65
2022/07/08 12:12:22;;;;;;;9.00;1.40;;;22.70;99.90;;;;;;7359031;32;20148;-66
2022/07/08 12:16:32;;;;;;;5.12;1.40;;;22.80;99.90;;;;;;7359077;32;20107;-65
2022/07/08 12:20:35;;;;;;;7.25;1.55;;;22.90;99.90;;;;;;7357529;32;20758;-65
2022/07/08 12:24:41;;;;;;;13.93;2.10;;;22.90;99.90;;;;;;7358682;32;20551;-66
2022/07/08 12:28:43;;;;;;;6.50;1.60;;;22.80;99.90;;;;;;7357359;32;20107;-66
2022/07/08 12:32:47;;;;;;;8.70;1.83;;;22.80;99.90;;;;;;7358724;32;20099;-66
2022/07/08 12:36:49;;;;;;;7.55;1.48;;;22.90;99.90;;;;;;7357916;32;20694;-65
2022/07/08 12:40:51;;;;;;;7.75;1.62;;;22.90;99.90;;;;;;7357042;32;20095;-66
2022/07/08 12:44:56;;;;;;;8.68;1.60;;;22.60;99.90;;;;;;7357731;32;20198;-66
2022/07/08 12:48:58;;;;;;;6.47;1.60;;;22.80;99.90;;;;;;7356306;32;20660;-66
2022/07/08 12:53:00;;;;;;;11.93;1.70;;;22.90;99.90;;;;;;7357621;32;20147;-66
2022/07/08 12:57:03;;;;;;;12.07;1.60;;;22.80;99.90;;;;;;7347601;32;20205;-66
2022/07/08 13:01:05;;;;;;;6.37;1.58;;;22.70;99.90;;;;;;7353417;32;20107;-65
2022/07/08 13:05:07;;;;;;;7.45;1.17;;;22.80;99.90;;;;;;7357525;32;20175;-65
2022/07/08 13:09:11;;;;;;;6.05;1.55;;;22.60;99.90;;;;;;7356108;32;20103;-66
2022/07/08 13:13:13;;;;;;;7.72;1.40;;;22.70;99.90;;;;;;7357127;32;20185;-65
2022/07/08 13:17:15;;;;;;;5.25;1.17;;;22.70;99.90;;;;;;7357293;32;20153;-66
2022/07/08 13:21:16;;;;;;;4.68;1.12;;;22.90;99.90;;;;;;7356322;32;20111;-66
2022/07/08 13:25:18;;;;;;;7.87;1.42;;;23.10;99.90;;;;;;7357631;32;20156;-66
2022/07/08 13:29:20;;;;;;;5.45;1.25;;;23.50;99.90;;;;;;7355816;32;20217;-66
2022/07/08 13:33:22;;;;;;;5.35;1.10;;;23.60;99.90;;;;;;7357185;32;20158;-66
2022/07/08 13:37:24;;;;;;;6.10;1.35;;;23.50;99.90;;;;;;7356521;32;20135;-66
2022/07/08 13:41:29;;;;;;;3.70;1.08;;;24.10;99.90;;;;;;7355720;32;20115;-65
2022/07/08 13:45:31;;;;;;;7.15;1.48;;;24.70;99.90;;;;;;7356407;32;20198;-66
2022/07/08 13:49:33;;;;;;;7.57;1.85;;;24.30;99.90;;;;;;7355605;32;20133;-65
2022/07/08 13:53:35;;;;;;;4.75;1.20;;;23.90;99.90;;;;;;7350769;32;20122;-66
2022/07/08 13:57:37;;;;;;;5.25;1.00;;;23.80;99.90;;;;;;7344009;32;20108;-66
2022/07/08 14:01:38;;;;;;;6.37;1.10;;;23.50;99.90;;;;;;7358801;32;20459;-66
2022/07/08 14:05:44;;;;;;;5.75;0.90;;;23.60;99.90;;;;;;7361466;32;20108;-65
2022/07/08 14:09:45;;;;;;;5.62;0.80;;;23.70;99.90;;;;;;7360880;32;20157;-66
2022/07/08 14:13:47;;;;;;;6.78;1.45;;;24.20;99.90;;;;;;7360860;32;20553;-67
2022/07/08 14:17:49;;;;;;;5.28;1.60;;;24.50;99.90;;;;;;7360506;32;20218;-65
2022/07/08 14:21:51;;;;;;;6.53;1.12;;;24.20;99.90;;;;;;7361260;32;20208;-65
2022/07/08 14:25:53;;;;;;;5.18;1.00;;;24.20;99.90;;;;;;7361619;32;20095;-65
2022/07/08 14:29:54;;;;;;;6.07;1.10;;;24.20;99.90;;;;;;7360823;32;20119;-66
2022/07/08 14:33:56;;;;;;;7.93;1.27;;;24.60;99.90;;;;;;7361176;32;20149;-65
2022/07/08 14:38:01;;;;;;;4.85;1.10;;;24.50;99.90;;;;;;7360092;32;20159;-66
2022/07/08 14:42:03;;;;;;;3.72;1.05;;;24.00;99.90;;;;;;7361057;32;20103;-65
2022/07/08 14:46:05;;;;;;;5.53;1.20;;;23.50;99.90;;;;;;7360491;32;20150;-65
2022/07/08 14:50:08;;;;;;;6.55;1.00;;;23.30;99.90;;;;;;7359636;32;20099;-65
2022/07/08 14:54:10;;;;;;;6.40;1.15;;;23.10;99.90;;;;;;7361032;32;20092;-65
2022/07/08 14:58:11;;;;;;;5.55;1.00;;;22.90;99.90;;;;;;7342422;32;20605;-67
2022/07/08 15:02:13;;;;;;;6.32;0.93;;;23.00;99.90;;;;;;7334825;32;20179;-65
2022/07/08 15:06:15;;;;;;;5.50;1.15;;;23.10;99.90;;;;;;7338553;32;20129;-65
2022/07/08 15:10:17;;;;;;;5.40;0.80;;;23.20;99.90;;;;;;7359655;32;20111;-65
2022/07/08 15:14:19;;;;;;;5.20;0.90;;;23.40;99.90;;;;;;7358978;32;20186;-66
2022/07/08 15:18:21;;;;;;;5.03;1.08;;;24.00;99.90;;;;;;7359250;32;20404;-65
2022/07/08 15:22:23;;;;;;;8.70;1.10;;;24.30;99.90;;;;;;7359623;32;20594;-65
2022/07/08 15:26:24;;;;;;;5.80;1.02;;;24.20;99.90;;;;;;7359973;32;20178;-67
2022/07/08 15:30:26;;;;;;;5.10;1.00;;;24.30;99.90;;;;;;7359056;32;20107;-66
2022/07/08 15:34:28;;;;;;;3.25;0.95;;;24.00;99.90;;;;;;7360321;32;20125;-67
2022/07/08 15:38:30;;;;;;;2.50;0.88;;;23.90;99.90;;;;;;7358755;32;20148;-66
2022/07/08 15:42:31;;;;;;;2.22;0.88;;;23.80;99.90;;;;;;7359676;32;20195;-66
2022/07/08 15:46:33;;;;;;;6.85;1.45;;;23.50;99.90;;;;;;7357996;32;20235;-66
2022/07/08 15:50:35;;;;;;;3.53;0.77;;;23.50;99.90;;;;;;7358581;32;20713;-65
2022/07/08 15:54:37;;;;;;;3.70;1.00;;;23.70;99.90;;;;;;7358657;32;20155;-66
2022/07/08 15:58:39;;;;;;;5.80;1.08;;;23.80;99.90;;;;;;7338134;32;20276;-66
2022/07/08 16:02:41;;;;;;;8.32;3.97;;;23.70;99.90;;;;;;7332878;32;20190;-66
2022/07/08 16:06:43;;;;;;;5.18;1.00;;;23.50;99.90;;;;;;7333309;32;20473;-66
2022/07/08 16:10:44;;;;;;;6.90;1.15;;;23.30;99.90;;;;;;7333212;32;20168;-65
2022/07/08 16:14:47;;;;;;;3.58;0.90;;;23.20;99.90;;;;;;7358931;32;20534;-65
2022/07/08 16:18:49;;;;;;;4.30;1.10;;;23.00;99.90;;;;;;7357645;32;20107;-65
2022/07/08 16:22:51;;;;;;;7.57;1.30;;;22.90;99.90;;;;;;7358122;32;20124;-65
2022/07/08 16:26:56;;;;;;;4.60;1.08;;;23.00;99.90;;;;;;7357638;32;20115;-67
2022/07/08 16:30:57;;;;;;;3.30;0.90;;;22.90;99.90;;;;;;7332146;32;20688;-66
2022/07/08 16:34:59;;;;;;;4.43;1.30;;;23.00;99.90;;;;;;7332746;32;20722;-65
2022/07/08 16:39:01;;;;;;;6.80;1.48;;;22.90;99.90;;;;;;7332293;32;20249;-66
2022/07/08 16:43:03;;;;;;;6.30;1.10;;;22.90;99.90;;;;;;7334989;32;20505;-65
2022/07/08 16:47:04;;;;;;;3.28;1.05;;;22.90;99.90;;;;;;7357930;32;20115;-66
2022/07/08 16:51:06;;;;;;;3.40;1.00;;;22.70;99.90;;;;;;7356385;32;20156;-66
2022/07/08 16:55:08;;;;;;;4.80;1.00;;;22.70;99.90;;;;;;7342186;32;20715;-66
2022/07/08 16:59:10;;;;;;;5.05;1.02;;;22.70;99.90;;;;;;7354744;32;20206;-65
2022/07/08 17:03:12;;;;;;;6.50;1.12;;;22.70;99.90;;;;;;7357530;32;20206;-65
2022/07/08 17:07:14;;;;;;;6.03;1.20;;;22.70;99.90;;;;;;7356981;32;20127;-65
2022/07/08 17:11:15;;;;;;;6.43;1.00;;;22.60;99.90;;;;;;7356434;32;20107;-65
2022/07/08 17:15:17;;;;;;;2.62;1.35;;;22.50;99.90;;;;;;7357202;32;20194;-66
2022/07/08 17:19:20;;;;;;;5.57;1.20;;;22.30;99.90;;;;;;7356328;32;20107;-66
2022/07/08 17:23:22;;;;;;;5.65;1.20;;;22.30;99.90;;;;;;7356740;32;20135;-65
2022/07/08 17:27:24;;;;;;;4.00;0.95;;;22.00;99.90;;;;;;7356904;32;20571;-67
2022/07/08 17:31:26;;;;;;;4.28;1.20;;;22.00;99.90;;;;;;7356412;32;20121;-66
2022/07/08 17:35:28;;;;;;;4.28;1.00;;;21.90;99.90;;;;;;7356572;32;20421;-66
2022/07/08 17:39:31;;;;;;;4.28;1.10;;;22.00;99.90;;;;;;7356240;32;20123;-66
2022/07/08 17:43:32;;;;;;;3.42;1.05;;;22.10;99.90;;;;;;7356923;32;20122;-65
2022/07/08 17:47:34;;;;;;;6.22;1.05;;;21.90;99.90;;;;;;7355525;32;20857;-66
2022/07/08 17:51:36;;;;;;;4.32;1.10;;;21.80;99.90;;;;;;7356038;32;20107;-66
2022/07/08 17:55:37;;;;;;;4.28;1.20;;;21.60;99.90;;;;;;7355451;32;20126;-66
2022/07/08 17:59:39;;;;;;;4.85;1.27;;;21.50;99.90;;;;;;7330697;32;20131;-65
2022/07/08 18:03:47;;;;;;;2.97;1.12;;;21.50;99.90;;;;;;7333183;32;20552;-65
2022/07/08 18:07:49;;;;;;;6.37;1.23;;;21.50;99.90;;;;;;7355756;32;20374;-65
2022/07/08 18:11:51;;;;;;;2.30;1.15;;;21.80;99.90;;;;;;7356511;32;20704;-65
2022/07/08 18:15:53;;;;;;;3.33;1.17;;;21.70;99.90;;;;;;7356893;32;20111;-67
2022/07/08 18:19:54;;;;;;;5.22;2.37;;;21.70;99.90;;;;;;7355365;32;20202;-65
2022/07/08 18:23:58;;;;;;;2.75;1.10;;;21.80;99.90;;;;;;7355904;32;20156;-65
2022/07/08 18:28:00;;;;;;;2.17;1.48;;;21.80;99.90;;;;;;7355793;32;20317;-68
2022/07/08 18:32:02;;;;;;;5.25;1.40;;;21.70;99.90;;;;;;7357269;32;20127;-66
2022/07/08 18:36:05;;;;;;;5.78;1.40;;;21.70;99.90;;;;;;7356531;32;20130;-67
2022/07/08 18:40:07;;;;;;;3.60;1.42;;;21.70;99.90;;;;;;7355714;32;20529;-66
2022/07/08 18:44:10;;;;;;;3.72;1.08;;;21.60;99.90;;;;;;7356423;32;20107;-67
2022/07/08 18:48:12;;;;;;;4.40;1.12;;;21.60;99.90;;;;;;7358065;32;20585;-67
2022/07/08 18:52:14;;;;;;;3.33;1.27;;;21.50;99.90;;;;;;7361432;32;20169;-68
2022/07/08 18:56:16;;;;;;;3.40;1.17;;;21.30;99.90;;;;;;7341742;32;20498;-66
2022/07/08 19:00:18;;;;;;;2.55;1.02;;;21.30;99.90;;;;;;7360480;32;20134;-66
2022/07/08 19:04:20;;;;;;;4.43;1.20;;;21.20;99.90;;;;;;7362005;32;20127;-66
2022/07/08 19:08:22;;;;;;;3.85;1.30;;;21.10;99.90;;;;;;7360402;32;20268;-65
2022/07/08 19:12:23;;;;;;;3.50;1.30;;;20.90;99.90;;;;;;7360803;32;20583;-66
2022/07/08 19:16:25;;;;;;;2.12;1.10;;;20.80;99.90;;;;;;7361125;32;20095;-66
2022/07/08 19:20:27;;;;;;;5.22;1.27;;;20.80;99.90;;;;;;7360481;32;20129;-67
2022/07/08 19:24:29;;;;;;;4.03;1.30;;;20.60;99.90;;;;;;7360432;32;20107;-67
2022/07/08 19:28:30;;;;;;;3.35;1.40;;;20.50;99.90;;;;;;7358724;32;20221;-67
2022/07/08 19:32:33;;;;;;;3.70;1.30;;;20.30;99.90;;;;;;7360349;32;20490;-66
2022/07/08 19:36:35;;;;;;;2.95;1.10;;;20.20;99.90;;;;;;7360826;32;20203;-67
2022/07/08 19:40:36;;;;;;;2.85;1.25;;;20.00;99.90;;;;;;7359804;32;20236;-67
2022/07/08 19:44:38;;;;;;;5.10;1.50;;;19.90;99.90;;;;;;7359903;32;20833;-66
2022/07/08 19:48:40;;;;;;;4.97;1.33;;;19.60;99.90;;;;;;7359999;32;20127;-66
2022/07/08 19:52:42;;;;;;;3.75;1.25;;;19.40;99.90;;;;;;7360120;32;20228;-67
2022/07/08 19:56:43;;;;;;;5.15;1.52;;;19.20;99.90;;;;;;7341880;32;20439;-66
2022/07/08 20:00:45;;;;;;;3.33;1.50;;;19.00;99.90;;;;;;7357653;32;20127;-62
2022/07/08 20:04:52;;;;;;;5.43;1.70;;;18.80;99.90;;;;;;7360888;32;20857;-62
2022/07/08 20:08:56;;;;;;;4.47;1.45;;;18.60;99.90;;;;;;7359210;32;20466;-63
2022/07/08 20:13:00;;;;;;;4.20;1.17;;;18.40;99.90;;;;;;7359392;32;20452;-63
2022/07/08 20:17:02;;;;;;;6.03;2.08;;;18.20;99.90;;;;;;7359021;32;20119;-62
2022/07/08 20:21:04;;;;;;;5.68;1.67;;;18.10;99.90;;;;;;7359486;32;20099;-62
2022/07/08 20:25:07;;;;;;;6.82;2.10;;;17.90;99.90;;;;;;7359318;32;20125;-63
2022/07/08 20:29:11;;;;;;;6.57;2.00;;;17.80;99.90;;;;;;7356873;32;20587;-62
2022/07/08 20:33:13;;;;;;;3.70;1.80;;;17.70;99.90;;;;;;7359089;32;20327;-63
2022/07/08 20:37:15;;;;;;;5.35;1.55;;;17.70;99.90;;;;;;7359649;32;20225;-64
2022/07/08 20:45:46;;;;;;;4.40;1.60;;;17.30;99.90;;;;;;7358752;32;20122;-62
2022/07/08 20:49:47;;;;;;;4.37;1.75;;;17.20;99.90;;;;;;7358358;32;20110;-64
2022/07/08 20:53:49;;;;;;;3.47;1.70;;;17.10;99.90;;;;;;7358697;32;20100;-62
2022/07/08 20:57:51;;;;;;;5.30;1.92;;;17.00;99.90;;;;;;7342588;32;20206;-63
2022/07/08 21:01:55;;;;;;;5.80;2.00;;;16.90;99.90;;;;;;7351276;32;20218;-61
2022/07/08 21:05:56;;;;;;;5.90;1.90;;;16.80;99.90;;;;;;7359204;32;20486;-63
2022/07/08 21:10:12;;;;;;;4.68;1.87;;;16.70;99.90;;;;;;7356851;32;20206;-62
2022/07/08 21:14:14;;;;;;;5.22;1.92;;;16.50;99.90;;;;;;7358491;32;20118;-63